createdAt,value
2023-01-26T00:01:35.813Z,71.10
2023-01-26T00:04:03.331Z,71.20
2023-01-26T00:06:30.721Z,71.20
2023-01-26T00:08:57.981Z,71.20
2023-01-26T00:11:27.556Z,71.20
2023-01-26T00:13:57.266Z,71.10
2023-01-26T00:16:25.303Z,71.10
2023-01-26T00:18:53.813Z,71.20
2023-01-26T00:21:23.006Z,71.30
2023-01-26T00:23:51.824Z,71.40
2023-01-26T00:26:22.103Z,71.30
2023-01-26T00:28:50.011Z,72.00
2023-01-26T00:31:22.429Z,71.00
2023-01-26T00:33:50.563Z,71.00
2023-01-26T00:36:18.529Z,71.10
2023-01-26T00:38:46.207Z,71.20
2023-01-26T00:41:33.849Z,71.10
2023-01-26T00:44:01.666Z,71.10
2023-01-26T00:46:29.263Z,71.10
2023-01-26T00:48:56.546Z,71.00
2023-01-26T00:51:23.900Z,71.00
2023-01-26T00:53:51.197Z,71.00
2023-01-26T00:56:19.597Z,70.90
2023-01-26T00:58:46.921Z,70.90
2023-01-26T01:01:14.494Z,70.90
2023-01-26T01:03:43.157Z,71.70
2023-01-26T01:06:10.578Z,70.90
2023-01-26T01:08:38.046Z,70.90
2023-01-26T01:11:10.859Z,71.00
2023-01-26T01:13:39.174Z,70.90
2023-01-26T01:16:12.653Z,70.90
2023-01-26T01:18:40.841Z,71.00
2023-01-26T01:21:12.283Z,71.00
2023-01-26T01:23:40.041Z,71.00
2023-01-26T01:26:08.852Z,71.00
2023-01-26T01:28:36.893Z,71.10
2023-01-26T01:31:06.088Z,71.10
2023-01-26T01:33:33.685Z,71.10
2023-01-26T01:36:07.104Z,71.40
2023-01-26T01:38:34.793Z,71.10
2023-01-26T01:41:03.920Z,70.80
2023-01-26T01:43:31.328Z,71.20
2023-01-26T01:46:01.796Z,71.20
2023-01-26T01:48:50.351Z,71.20
2023-01-26T01:51:32.979Z,71.20
2023-01-26T01:54:05.624Z,71.30
2023-01-26T01:56:35.299Z,71.30
2023-01-26T01:59:04.493Z,71.30
2023-01-26T02:01:31.775Z,71.30
2023-01-26T02:04:04.248Z,71.20
2023-01-26T02:06:37.596Z,71.10
2023-01-26T02:09:06.794Z,71.00
2023-01-26T02:11:40.145Z,71.00
2023-01-26T02:14:11.441Z,71.00
2023-01-26T02:16:39.990Z,71.20
2023-01-26T02:19:26.653Z,71.30
2023-01-26T02:21:59.939Z,71.20
2023-01-26T02:24:32.175Z,71.20
2023-01-26T02:26:59.957Z,71.30
2023-01-26T02:29:27.302Z,71.20
2023-01-26T02:31:55.573Z,71.20
2023-01-26T02:34:28.724Z,71.10
2023-01-26T02:36:58.539Z,71.20
2023-01-26T02:39:45.399Z,71.20
2023-01-26T02:42:32.132Z,71.20
2023-01-26T02:45:00.606Z,71.10
2023-01-26T02:47:28.737Z,71.10
2023-01-26T02:49:58.174Z,71.10
2023-01-26T02:52:27.870Z,71.30
2023-01-26T02:55:18.229Z,71.20
2023-01-26T02:57:46.482Z,71.20
2023-01-26T03:00:17.736Z,71.30
2023-01-26T03:02:46.624Z,71.40
2023-01-26T03:05:14.199Z,71.50
2023-01-26T03:07:41.857Z,71.40
2023-01-26T03:10:10.513Z,72.10
2023-01-26T03:12:38.272Z,71.40
2023-01-26T03:15:25.431Z,71.50
2023-01-26T03:18:20.367Z,71.50
2023-01-26T03:21:09.464Z,71.60
2023-01-26T03:23:55.962Z,71.60
2023-01-26T03:26:43.861Z,71.50
2023-01-26T03:29:11.444Z,71.50
2023-01-26T03:31:41.020Z,71.60
2023-01-26T03:34:08.292Z,71.60
2023-01-26T03:36:37.300Z,71.60
2023-01-26T03:39:09.018Z,71.60
2023-01-26T03:41:54.749Z,71.50
2023-01-26T03:44:41.197Z,71.30
2023-01-26T03:47:28.149Z,71.20
2023-01-26T03:50:14.079Z,71.30
2023-01-26T03:53:00.102Z,71.40
2023-01-26T03:55:46.037Z,71.50
2023-01-26T03:58:13.544Z,71.60
2023-01-26T04:00:41.014Z,71.70
2023-01-26T04:03:27.021Z,71.60
2023-01-26T04:06:17.504Z,71.70
2023-01-26T04:08:48.622Z,71.70
2023-01-26T04:11:16.613Z,71.70
2023-01-26T04:14:02.980Z,71.70
2023-01-26T04:16:51.792Z,71.80
2023-01-26T04:19:37.637Z,71.70
2023-01-26T04:22:05.090Z,71.80
2023-01-26T04:24:34.790Z,71.70
2023-01-26T04:27:02.108Z,71.80
2023-01-26T04:29:35.865Z,71.80
2023-01-26T04:32:03.568Z,71.70
2023-01-26T04:34:32.861Z,71.60
2023-01-26T04:37:01.611Z,71.60
2023-01-26T04:39:41.033Z,71.50
2023-01-26T04:42:08.673Z,71.60
2023-01-26T04:44:36.001Z,71.60
2023-01-26T04:47:05.007Z,71.60
2023-01-26T04:49:33.541Z,71.60
2023-01-26T04:52:00.943Z,71.70
2023-01-26T04:54:29.416Z,71.80
2023-01-26T04:56:56.877Z,71.80
2023-01-26T04:59:24.636Z,71.70
2023-01-26T05:01:56.033Z,71.70
2023-01-26T05:04:23.450Z,71.80
2023-01-26T05:06:51.141Z,72.00
2023-01-26T05:09:18.575Z,71.90
2023-01-26T05:11:49.315Z,71.90
2023-01-26T05:14:42.667Z,71.80
2023-01-26T05:17:19.673Z,71.80
2023-01-26T05:19:47.089Z,71.80
2023-01-26T05:22:33.174Z,71.90
2023-01-26T05:25:19.726Z,71.80
2023-01-26T05:27:53.737Z,71.90
2023-01-26T05:30:21.509Z,72.30
2023-01-26T05:32:50.577Z,71.80
2023-01-26T05:35:18.376Z,71.90
2023-01-26T05:37:46.483Z,72.00
2023-01-26T05:40:15.341Z,71.90
2023-01-26T05:42:43.858Z,71.80
2023-01-26T05:45:30.003Z,71.80
2023-01-26T05:48:01.233Z,71.80
2023-01-26T05:50:30.136Z,71.80
2023-01-26T05:53:16.168Z,71.80
2023-01-26T05:55:44.144Z,71.80
2023-01-26T05:58:12.129Z,71.80
2023-01-26T06:00:40.312Z,71.90
2023-01-26T06:03:13.432Z,71.90
2023-01-26T06:05:40.936Z,71.90
2023-01-26T06:08:15.613Z,71.90
2023-01-26T06:11:01.679Z,72.00
2023-01-26T06:13:42.197Z,72.00
2023-01-26T06:16:19.169Z,72.00
2023-01-26T06:18:50.127Z,72.00
2023-01-26T06:21:18.543Z,71.90
2023-01-26T06:23:46.099Z,71.90
2023-01-26T06:26:15.201Z,72.00
2023-01-26T06:28:43.087Z,72.00
2023-01-26T06:31:14.148Z,72.00
2023-01-26T06:33:42.799Z,72.00
2023-01-26T06:36:14.128Z,71.90
2023-01-26T06:38:47.843Z,71.90
2023-01-26T06:41:16.344Z,72.00
2023-01-26T06:43:47.150Z,71.80
2023-01-26T06:46:16.198Z,72.00
2023-01-26T06:48:45.292Z,72.10
2023-01-26T06:51:15.736Z,72.00
2023-01-26T06:53:56.841Z,72.10
2023-01-26T06:56:40.030Z,72.00
2023-01-26T06:59:21.568Z,72.10
2023-01-26T07:01:51.924Z,72.00
2023-01-26T07:04:19.473Z,72.00
2023-01-26T07:06:46.876Z,72.00
2023-01-26T07:09:14.283Z,71.90
2023-01-26T07:11:41.739Z,72.00
2023-01-26T07:14:09.282Z,72.10
2023-01-26T07:16:36.624Z,72.20
2023-01-26T07:19:04.077Z,72.10
2023-01-26T07:21:31.594Z,72.20
2023-01-26T07:23:59.094Z,72.20
2023-01-26T07:26:26.368Z,72.30
2023-01-26T07:28:53.876Z,72.20
2023-01-26T07:31:21.464Z,72.20
2023-01-26T07:33:49.026Z,72.10
2023-01-26T07:36:16.477Z,72.10
2023-01-26T07:38:43.903Z,72.00
2023-01-26T07:41:12.880Z,72.00
2023-01-26T07:43:41.878Z,71.90
2023-01-26T07:46:12.797Z,71.80
2023-01-26T07:48:40.755Z,71.90
2023-01-26T07:51:09.322Z,71.90
2023-01-26T07:53:42.270Z,71.90
2023-01-26T07:56:16.035Z,71.90
2023-01-26T07:58:43.477Z,71.80
2023-01-26T08:01:13.397Z,71.80
2023-01-26T08:03:41.469Z,71.90
2023-01-26T08:06:11.755Z,72.00
2023-01-26T08:08:41.302Z,71.90
2023-01-26T08:11:09.383Z,71.80
2023-01-26T08:13:37.395Z,71.70
2023-01-26T08:16:10.643Z,71.70
2023-01-26T08:18:39.358Z,71.80
2023-01-26T08:21:06.844Z,71.70
2023-01-26T08:23:34.552Z,71.70
2023-01-26T08:26:07.074Z,71.60
2023-01-26T08:28:35.112Z,71.70
2023-01-26T08:31:05.986Z,71.80
2023-01-26T08:33:34.320Z,71.80
2023-01-26T08:36:03.621Z,71.90
2023-01-26T08:38:32.430Z,72.00
2023-01-26T08:41:00.959Z,72.00
2023-01-26T08:43:28.649Z,71.90
2023-01-26T08:45:56.090Z,71.90
2023-01-26T08:48:23.556Z,71.90
2023-01-26T08:50:59.648Z,71.70
2023-01-26T08:53:30.176Z,72.40
2023-01-26T08:55:57.641Z,71.70
2023-01-26T08:58:25.067Z,71.60
2023-01-26T09:00:52.623Z,71.60
2023-01-26T09:03:20.104Z,71.70
2023-01-26T09:05:47.777Z,71.70
2023-01-26T09:08:15.350Z,71.60
2023-01-26T09:10:45.143Z,71.40
2023-01-26T09:13:12.759Z,71.40
2023-01-26T09:15:40.197Z,71.20
2023-01-26T09:18:07.585Z,71.20
2023-01-26T09:20:35.080Z,71.20
2023-01-26T09:23:02.434Z,71.10
2023-01-26T09:25:30.252Z,70.90
2023-01-26T09:27:57.769Z,70.90
2023-01-26T09:30:25.225Z,70.80
2023-01-26T09:32:53.301Z,70.80
2023-01-26T09:35:20.667Z,71.00
2023-01-26T09:37:48.684Z,71.10
2023-01-26T09:40:39.825Z,71.10
2023-01-26T09:43:41.566Z,71.10
2023-01-26T09:46:43.192Z,71.20
2023-01-26T09:49:17.380Z,71.10
2023-01-26T09:51:55.726Z,71.20
2023-01-26T09:54:39.257Z,71.30
2023-01-26T09:57:15.596Z,71.40
2023-01-26T10:00:13.094Z,71.20
2023-01-26T10:02:55.094Z,71.10
2023-01-26T10:05:36.345Z,70.90
2023-01-26T10:08:14.796Z,70.80
2023-01-26T10:10:48.153Z,70.90
2023-01-26T10:13:18.327Z,71.00
2023-01-26T10:15:51.973Z,71.00
2023-01-26T10:18:27.965Z,70.80
2023-01-26T10:20:58.195Z,70.80
2023-01-26T10:23:30.364Z,70.60
2023-01-26T10:26:19.539Z,70.40
2023-01-26T10:28:50.325Z,70.40
2023-01-26T10:31:23.808Z,70.60
2023-01-26T10:34:18.139Z,70.70
2023-01-26T10:36:46.665Z,70.70
2023-01-26T10:39:16.951Z,70.80
2023-01-26T10:41:59.045Z,70.70
2023-01-26T10:44:33.738Z,70.50
2023-01-26T10:47:19.739Z,70.60
2023-01-26T10:49:47.760Z,70.60
2023-01-26T10:52:19.499Z,70.70
2023-01-26T10:54:47.284Z,70.60
2023-01-26T10:57:32.505Z,70.80
2023-01-26T11:00:09.658Z,70.70
2023-01-26T11:02:37.454Z,70.80
2023-01-26T11:05:10.222Z,70.90
2023-01-26T11:07:43.455Z,70.80
2023-01-26T11:10:31.959Z,70.70
2023-01-26T11:13:17.729Z,70.60
2023-01-26T11:15:48.438Z,70.30
2023-01-26T11:18:22.638Z,70.20
2023-01-26T11:20:59.861Z,70.10
2023-01-26T11:23:52.917Z,69.90
2023-01-26T11:26:41.773Z,69.70
2023-01-26T11:29:33.961Z,69.90
2023-01-26T11:32:42.689Z,69.70
2023-01-26T11:35:30.378Z,69.80
2023-01-26T11:38:27.463Z,69.80
2023-01-26T11:41:00.663Z,69.80
2023-01-26T11:43:52.649Z,70.00
2023-01-26T11:46:41.332Z,70.10
2023-01-26T11:49:28.369Z,70.30
2023-01-26T11:52:04.106Z,70.20
2023-01-26T11:54:57.813Z,70.30
2023-01-26T11:57:48.698Z,70.30
2023-01-26T12:00:31.740Z,70.20
2023-01-26T12:03:04.831Z,70.10
2023-01-26T12:05:43.393Z,70.00
2023-01-26T12:08:38.565Z,70.00
2023-01-26T12:11:23.096Z,70.00
2023-01-26T12:13:58.593Z,70.00
2023-01-26T12:17:17.568Z,69.90
2023-01-26T12:19:52.969Z,69.90
2023-01-26T12:22:39.909Z,69.90
2023-01-26T12:25:38.246Z,69.90
2023-01-26T12:28:22.763Z,69.70
2023-01-26T12:30:57.677Z,69.70
2023-01-26T12:33:26.048Z,69.80
2023-01-26T12:36:20.997Z,69.80
2023-01-26T12:39:00.217Z,69.90
2023-01-26T12:41:30.458Z,70.10
2023-01-26T12:44:10.533Z,70.10
2023-01-26T12:46:44.902Z,70.10
2023-01-26T12:49:23.670Z,70.20
2023-01-26T12:51:59.536Z,70.10
2023-01-26T12:55:01.543Z,70.10
2023-01-26T12:57:42.848Z,70.20
2023-01-26T13:00:22.982Z,70.20
2023-01-26T13:02:55.741Z,70.00
2023-01-26T13:05:26.085Z,70.00
2023-01-26T13:07:53.475Z,70.20
2023-01-26T13:10:24.338Z,70.30
2023-01-26T13:13:21.053Z,70.10
2023-01-26T13:16:17.427Z,70.10
2023-01-26T13:18:48.895Z,70.10
2023-01-26T13:21:36.565Z,70.20
2023-01-26T13:24:24.036Z,70.20
2023-01-26T13:26:59.139Z,70.20
2023-01-26T13:29:33.268Z,70.30
2023-01-26T13:32:23.754Z,70.30
2023-01-26T13:35:00.264Z,70.20
2023-01-26T13:37:44.998Z,70.10
2023-01-26T13:40:31.094Z,70.00
2023-01-26T13:43:26.381Z,70.10
2023-01-26T13:46:05.955Z,70.10
2023-01-26T13:48:35.839Z,70.10
2023-01-26T13:51:04.082Z,70.10
2023-01-26T13:53:44.709Z,70.30
2023-01-26T13:56:23.900Z,70.40
2023-01-26T13:58:52.172Z,70.60
2023-01-26T14:01:20.574Z,70.70
2023-01-26T14:03:48.518Z,70.60
2023-01-26T14:06:22.542Z,70.40
2023-01-26T14:08:54.484Z,70.50
2023-01-26T14:11:24.722Z,70.50
2023-01-26T14:13:59.005Z,71.30
2023-01-26T14:16:33.297Z,70.80
2023-01-26T14:19:22.434Z,70.80
2023-01-26T14:21:55.668Z,70.80
2023-01-26T14:24:34.578Z,71.00
2023-01-26T14:27:02.458Z,71.10
2023-01-26T14:29:36.783Z,71.00
2023-01-26T14:32:05.585Z,70.90
2023-01-26T14:34:33.072Z,70.80
2023-01-26T14:37:06.423Z,70.90
2023-01-26T14:39:34.177Z,70.90
2023-01-26T14:42:02.369Z,70.70
2023-01-26T14:44:30.029Z,70.70
2023-01-26T14:47:01.354Z,70.70
2023-01-26T14:49:47.641Z,70.80
2023-01-26T14:52:25.642Z,70.60
2023-01-26T14:54:55.481Z,70.60
2023-01-26T14:57:27.395Z,70.50
2023-01-26T15:00:00.794Z,70.40
2023-01-26T15:02:37.878Z,70.40
2023-01-26T15:05:11.712Z,70.40
2023-01-26T15:07:48.786Z,70.60
2023-01-26T15:10:41.171Z,70.70
2023-01-26T15:13:22.600Z,70.80
2023-01-26T15:16:11.824Z,70.70
2023-01-26T15:18:39.243Z,70.60
2023-01-26T15:21:14.423Z,70.60
2023-01-26T15:23:43.961Z,70.70
2023-01-26T15:26:32.062Z,70.80
2023-01-26T15:29:02.185Z,70.80
2023-01-26T15:31:33.618Z,70.70
2023-01-26T15:34:01.705Z,70.70
2023-01-26T15:36:32.275Z,70.50
2023-01-26T15:39:15.933Z,70.50
2023-01-26T15:42:01.618Z,70.50
2023-01-26T15:44:29.449Z,70.60
2023-01-26T15:46:57.745Z,70.60
2023-01-26T15:49:25.107Z,70.40
2023-01-26T15:51:54.070Z,70.40
2023-01-26T15:54:21.467Z,70.30
2023-01-26T15:56:48.669Z,70.20
2023-01-26T15:59:15.913Z,70.10
2023-01-26T16:01:43.553Z,70.00
2023-01-26T16:04:13.935Z,70.20
2023-01-26T16:06:41.506Z,70.20
2023-01-26T16:09:08.981Z,70.30
2023-01-26T16:11:41.813Z,70.40
2023-01-26T16:14:13.200Z,70.50
2023-01-26T16:16:40.759Z,70.50
2023-01-26T16:19:08.821Z,70.40
2023-01-26T16:21:41.002Z,70.30
2023-01-26T16:24:10.500Z,70.20
2023-01-26T16:26:38.095Z,70.20
2023-01-26T16:29:05.500Z,70.30
2023-01-26T16:31:36.288Z,70.30
2023-01-26T16:34:04.359Z,70.40
2023-01-26T16:36:31.693Z,70.40
2023-01-26T16:38:59.217Z,70.40
2023-01-26T16:41:28.956Z,70.40
2023-01-26T16:44:00.582Z,70.40
2023-01-26T16:46:29.605Z,70.50
2023-01-26T16:48:57.305Z,70.50
2023-01-26T16:51:28.757Z,70.30
2023-01-26T16:53:56.219Z,70.00
2023-01-26T16:56:24.612Z,69.90
2023-01-26T16:58:52.106Z,69.90
2023-01-26T17:01:22.851Z,69.90
2023-01-26T17:03:51.049Z,70.00
2023-01-26T17:06:19.342Z,70.00
2023-01-26T17:08:47.234Z,70.00
2023-01-26T17:11:25.518Z,70.10
2023-01-26T17:13:56.016Z,70.10
2023-01-26T17:16:25.973Z,70.20
2023-01-26T17:18:53.480Z,70.10
2023-01-26T17:21:21.733Z,70.10
2023-01-26T17:23:58.641Z,70.00
2023-01-26T17:26:26.175Z,69.90
2023-01-26T17:28:55.406Z,69.90
2023-01-26T17:31:24.002Z,69.80
2023-01-26T17:33:52.026Z,69.90
2023-01-26T17:36:20.235Z,69.90
2023-01-26T17:38:48.776Z,69.90
2023-01-26T17:41:17.007Z,69.90
2023-01-26T17:43:45.049Z,69.90
2023-01-26T17:46:14.658Z,70.00
2023-01-26T17:48:45.095Z,70.00
2023-01-26T17:51:16.596Z,70.00
2023-01-26T17:53:46.143Z,70.00
2023-01-26T17:56:15.713Z,70.00
2023-01-26T17:58:46.658Z,70.00
2023-01-26T18:01:14.060Z,70.00
2023-01-26T18:03:42.487Z,69.90
2023-01-26T18:06:10.671Z,69.90
2023-01-26T18:08:39.194Z,69.80
2023-01-26T18:11:09.949Z,69.90
2023-01-26T18:13:37.792Z,70.10
2023-01-26T18:16:06.697Z,70.30
2023-01-26T18:18:34.598Z,70.30
2023-01-26T18:21:12.201Z,70.30
2023-01-26T18:23:39.599Z,70.60
2023-01-26T18:26:07.852Z,70.40
2023-01-26T18:28:35.206Z,70.30
2023-01-26T18:31:35.680Z,70.30
2023-01-26T18:34:04.406Z,70.40
2023-01-26T18:36:32.516Z,70.30
2023-01-26T18:39:05.743Z,70.30
2023-01-26T18:41:33.632Z,70.40
2023-01-26T18:44:03.160Z,70.40
2023-01-26T18:46:33.524Z,70.40
2023-01-26T18:49:01.471Z,70.40
2023-01-26T18:51:30.791Z,70.40
2023-01-26T18:53:58.289Z,70.40
2023-01-26T18:56:26.274Z,70.40
2023-01-26T18:58:54.323Z,70.50
2023-01-26T19:01:22.496Z,70.40
2023-01-26T19:03:54.109Z,70.20
2023-01-26T19:06:23.846Z,70.10
2023-01-26T19:09:01.267Z,70.10
2023-01-26T19:11:31.672Z,70.10
2023-01-26T19:14:00.220Z,69.90
2023-01-26T19:16:28.881Z,69.80
2023-01-26T19:18:56.829Z,69.90
2023-01-26T19:21:25.749Z,70.00
2023-01-26T19:23:55.814Z,70.10
2023-01-26T19:26:27.747Z,70.10
2023-01-26T19:28:55.717Z,70.10
2023-01-26T19:31:24.362Z,70.10
2023-01-26T19:33:59.822Z,70.10
2023-01-26T19:36:29.276Z,70.00
2023-01-26T19:38:57.117Z,69.90
2023-01-26T19:41:25.352Z,69.90
2023-01-26T19:43:53.058Z,69.90
2023-01-26T19:46:21.079Z,70.00
2023-01-26T19:48:48.941Z,70.10
2023-01-26T19:51:18.925Z,70.00
2023-01-26T19:53:49.342Z,69.90
2023-01-26T19:56:20.625Z,69.90
2023-01-26T19:58:54.164Z,69.90
2023-01-26T20:01:22.293Z,69.90
2023-01-26T20:03:51.549Z,69.80
2023-01-26T20:06:21.179Z,69.90
2023-01-26T20:08:49.079Z,69.90
2023-01-26T20:11:17.620Z,70.00
2023-01-26T20:13:45.198Z,70.00
2023-01-26T20:16:13.773Z,70.00
2023-01-26T20:18:41.393Z,70.00
2023-01-26T20:21:08.856Z,70.00
2023-01-26T20:23:36.624Z,70.00
2023-01-26T20:26:06.609Z,70.00
2023-01-26T20:28:34.625Z,70.00
2023-01-26T20:31:12.365Z,70.00
2023-01-26T20:33:39.896Z,70.10
2023-01-26T20:36:12.753Z,70.20
2023-01-26T20:38:40.259Z,70.20
2023-01-26T20:41:14.425Z,70.10
2023-01-26T20:43:58.102Z,70.10
2023-01-26T20:46:32.732Z,70.10
2023-01-26T20:49:00.403Z,70.00
2023-01-26T20:51:33.492Z,70.10
2023-01-26T20:54:02.427Z,70.00
2023-01-26T20:56:30.859Z,70.00
2023-01-26T20:58:58.348Z,70.00
2023-01-26T21:01:26.558Z,69.80
2023-01-26T21:03:54.614Z,69.90
2023-01-26T21:06:24.085Z,70.00
2023-01-26T21:08:54.885Z,70.80
2023-01-26T21:11:25.484Z,70.80
2023-01-26T21:13:55.582Z,70.00
2023-01-26T21:16:24.355Z,70.10
2023-01-26T21:18:52.214Z,70.10
2023-01-26T21:21:21.698Z,70.20
2023-01-26T21:23:49.616Z,70.40
2023-01-26T21:26:23.231Z,70.40
2023-01-26T21:28:52.712Z,70.50
2023-01-26T21:31:22.931Z,70.50
2023-01-26T21:33:51.456Z,70.50
2023-01-26T21:36:21.910Z,71.30
2023-01-26T21:38:51.941Z,70.60
2023-01-26T21:41:40.404Z,70.60
2023-01-26T21:44:13.563Z,70.80
2023-01-26T21:46:41.453Z,70.80
2023-01-26T21:49:10.264Z,70.90
2023-01-26T21:51:56.550Z,70.90
2023-01-26T21:54:23.901Z,70.90
2023-01-26T21:56:51.394Z,71.20
2023-01-26T21:59:19.464Z,71.00
2023-01-26T22:01:52.184Z,71.10
2023-01-26T22:04:25.639Z,71.00
2023-01-26T22:06:52.977Z,70.90
2023-01-26T22:09:21.337Z,71.00
2023-01-26T22:11:50.582Z,71.00
2023-01-26T22:14:20.854Z,71.00
2023-01-26T22:16:48.788Z,70.90
2023-01-26T22:19:16.448Z,70.80
2023-01-26T22:21:44.548Z,70.70
2023-01-26T22:24:14.493Z,70.60
2023-01-26T22:26:42.157Z,71.00
2023-01-26T22:29:11.294Z,70.60
2023-01-26T22:31:39.271Z,70.60
2023-01-26T22:34:06.861Z,70.70
2023-01-26T22:36:34.199Z,70.80
2023-01-26T22:39:01.669Z,71.50
2023-01-26T22:41:30.498Z,70.70
2023-01-26T22:43:59.473Z,70.70
2023-01-26T22:46:28.530Z,70.80
2023-01-26T22:48:57.390Z,70.80
2023-01-26T22:51:28.049Z,70.70
2023-01-26T22:53:57.249Z,70.80
2023-01-26T22:56:25.617Z,70.80
2023-01-26T22:58:58.497Z,70.80
2023-01-26T23:01:29.113Z,70.80
2023-01-26T23:03:57.374Z,70.80
2023-01-26T23:06:25.918Z,70.80
2023-01-26T23:08:53.837Z,70.80
2023-01-26T23:11:26.539Z,70.90
2023-01-26T23:13:55.369Z,71.00
2023-01-26T23:16:24.509Z,70.80
2023-01-26T23:18:53.851Z,70.80
2023-01-26T23:21:21.723Z,70.80
2023-01-26T23:23:49.415Z,70.70
2023-01-26T23:26:17.148Z,70.80
2023-01-26T23:28:44.855Z,70.80
2023-01-26T23:31:14.040Z,70.80
2023-01-26T23:33:41.862Z,70.90
2023-01-26T23:36:11.473Z,70.80
2023-01-26T23:38:39.154Z,70.80
2023-01-26T23:41:08.609Z,70.70
2023-01-26T23:43:36.507Z,70.80
2023-01-26T23:46:05.991Z,70.80
2023-01-26T23:48:33.701Z,70.80
2023-01-26T23:51:07.390Z,70.80
2023-01-26T23:53:34.932Z,70.80
2023-01-26T23:56:12.637Z,70.80
2023-01-26T23:58:39.890Z,70.90
